sensor_id;sensor_type;location;lat;lon;timestamp;pressure;altitude;pressure_sealevel;temperature;humidity
55466;BME280;41329;41.594;23.810;2022-11-12T00:00:33;96388.88;;;12.27;54.92
55466;BME280;41329;41.594;23.810;2022-11-12T00:02:59;96396.94;;;12.32;54.71
55466;BME280;41329;41.594;23.810;2022-11-12T00:05:24;96391.53;;;12.39;54.60
55466;BME280;41329;41.594;23.810;2022-11-12T00:07:49;96385.91;;;12.35;54.59
55466;BME280;41329;41.594;23.810;2022-11-12T00:10:15;96383.13;;;12.35;54.46
55466;BME280;41329;41.594;23.810;2022-11-12T00:12:40;96379.59;;;12.35;54.67
55466;BME280;41329;41.594;23.810;2022-11-12T00:15:06;96374.47;;;12.37;54.23
55466;BME280;41329;41.594;23.810;2022-11-12T00:17:31;96377.66;;;12.39;54.31
55466;BME280;41329;41.594;23.810;2022-11-12T00:19:56;96380.81;;;12.38;54.43
55466;BME280;41329;41.594;23.810;2022-11-12T00:22:22;96386.63;;;12.17;54.98
55466;BME280;41329;41.594;23.810;2022-11-12T00:24:47;96384.59;;;12.29;54.72
55466;BME280;41329;41.594;23.810;2022-11-12T00:27:12;96374.81;;;12.35;54.34
55466;BME280;41329;41.594;23.810;2022-11-12T00:29:38;96374.72;;;12.32;54.52
55466;BME280;41329;41.594;23.810;2022-11-12T00:32:06;96385.38;;;12.30;54.48
55466;BME280;41329;41.594;23.810;2022-11-12T00:34:31;96378.41;;;12.20;54.70
55466;BME280;41329;41.594;23.810;2022-11-12T00:36:57;96367.47;;;12.12;55.21
55466;BME280;41329;41.594;23.810;2022-11-12T00:39:23;96374.63;;;12.13;55.20
55466;BME280;41329;41.594;23.810;2022-11-12T00:41:48;96380.91;;;12.10;55.08
55466;BME280;41329;41.594;23.810;2022-11-12T00:44:13;96378.47;;;12.08;55.42
55466;BME280;41329;41.594;23.810;2022-11-12T00:46:39;96376.75;;;12.04;55.39
55466;BME280;41329;41.594;23.810;2022-11-12T00:49:04;96379.44;;;12.00;55.41
55466;BME280;41329;41.594;23.810;2022-11-12T00:51:29;96380.22;;;12.01;55.52
55466;BME280;41329;41.594;23.810;2022-11-12T00:53:54;96383.53;;;11.91;56.00
55466;BME280;41329;41.594;23.810;2022-11-12T00:56:20;96380.75;;;11.91;55.91
55466;BME280;41329;41.594;23.810;2022-11-12T00:58:45;96384.16;;;11.84;56.19
55466;BME280;41329;41.594;23.810;2022-11-12T01:01:12;96379.16;;;11.90;55.99
55466;BME280;41329;41.594;23.810;2022-11-12T01:03:38;96378.06;;;11.94;55.96
55466;BME280;41329;41.594;23.810;2022-11-12T01:06:05;96373.44;;;11.98;55.66
55466;BME280;41329;41.594;23.810;2022-11-12T01:08:31;96369.31;;;11.92;55.86
55466;BME280;41329;41.594;23.810;2022-11-12T01:11:03;96372.09;;;11.92;55.92
55466;BME280;41329;41.594;23.810;2022-11-12T01:13:28;96377.72;;;11.96;55.77
55466;BME280;41329;41.594;23.810;2022-11-12T01:15:53;96369.06;;;11.97;55.51
55466;BME280;41329;41.594;23.810;2022-11-12T01:18:18;96368.69;;;11.99;55.52
55466;BME280;41329;41.594;23.810;2022-11-12T01:20:44;96362.53;;;11.90;55.51
55466;BME280;41329;41.594;23.810;2022-11-12T01:23:09;96363.31;;;11.90;55.46
55466;BME280;41329;41.594;23.810;2022-11-12T01:25:36;96366.00;;;11.87;55.57
55466;BME280;41329;41.594;23.810;2022-11-12T01:28:01;96348.63;;;11.74;55.73
55466;BME280;41329;41.594;23.810;2022-11-12T01:30:26;96359.63;;;11.86;55.46
55466;BME280;41329;41.594;23.810;2022-11-12T01:32:52;96349.59;;;11.66;55.85
55466;BME280;41329;41.594;23.810;2022-11-12T01:35:17;96354.06;;;11.71;55.92
55466;BME280;41329;41.594;23.810;2022-11-12T01:37:42;96344.69;;;11.75;55.76
55466;BME280;41329;41.594;23.810;2022-11-12T01:40:08;96343.56;;;11.64;56.15
55466;BME280;41329;41.594;23.810;2022-11-12T01:42:33;96338.16;;;11.68;55.93
55466;BME280;41329;41.594;23.810;2022-11-12T01:44:59;96336.44;;;11.79;55.65
55466;BME280;41329;41.594;23.810;2022-11-12T01:47:24;96335.75;;;11.82;55.56
55466;BME280;41329;41.594;23.810;2022-11-12T01:52:27;96328.97;;;11.79;55.59
55466;BME280;41329;41.594;23.810;2022-11-12T01:54:56;96331.13;;;11.86;55.45
55466;BME280;41329;41.594;23.810;2022-11-12T01:57:24;96329.38;;;11.81;55.57
55466;BME280;41329;41.594;23.810;2022-11-12T01:59:52;96329.56;;;11.73;55.89
55466;BME280;41329;41.594;23.810;2022-11-12T02:02:19;96327.34;;;11.78;55.65
55466;BME280;41329;41.594;23.810;2022-11-12T02:04:45;96333.25;;;11.77;55.76
55466;BME280;41329;41.594;23.810;2022-11-12T02:07:11;96328.31;;;11.70;55.67
55466;BME280;41329;41.594;23.810;2022-11-12T02:09:37;96330.81;;;11.75;55.56
55466;BME280;41329;41.594;23.810;2022-11-12T02:12:02;96343.31;;;11.69;55.74
55466;BME280;41329;41.594;23.810;2022-11-12T02:14:27;96329.94;;;11.59;55.80
55466;BME280;41329;41.594;23.810;2022-11-12T02:16:53;96328.75;;;11.45;56.30
55466;BME280;41329;41.594;23.810;2022-11-12T02:19:19;96328.84;;;11.48;56.08
55466;BME280;41329;41.594;23.810;2022-11-12T02:21:44;96330.16;;;11.39;56.40
55466;BME280;41329;41.594;23.810;2022-11-12T02:26:45;96331.72;;;11.52;56.28
55466;BME280;41329;41.594;23.810;2022-11-12T02:29:11;96327.09;;;11.56;56.04
55466;BME280;41329;41.594;23.810;2022-11-12T02:31:36;96324.31;;;11.56;55.81
55466;BME280;41329;41.594;23.810;2022-11-12T02:34:02;96325.09;;;11.29;56.05
55466;BME280;41329;41.594;23.810;2022-11-12T02:36:28;96332.72;;;11.32;56.49
55466;BME280;41329;41.594;23.810;2022-11-12T02:38:53;96323.81;;;11.38;56.24
55466;BME280;41329;41.594;23.810;2022-11-12T02:41:19;96328.84;;;11.48;56.14
55466;BME280;41329;41.594;23.810;2022-11-12T02:43:44;96334.03;;;11.50;56.18
55466;BME280;41329;41.594;23.810;2022-11-12T02:46:09;96335.75;;;11.54;56.20
55466;BME280;41329;41.594;23.810;2022-11-12T02:48:35;96334.59;;;11.55;56.20
55466;BME280;41329;41.594;23.810;2022-11-12T02:51:00;96335.06;;;11.57;56.09
55466;BME280;41329;41.594;23.810;2022-11-12T02:53:25;96326.75;;;11.57;56.15
55466;BME280;41329;41.594;23.810;2022-11-12T02:55:51;96329.13;;;11.59;55.80
55466;BME280;41329;41.594;23.810;2022-11-12T02:58:16;96324.81;;;11.46;56.13
55466;BME280;41329;41.594;23.810;2022-11-12T03:00:41;96324.31;;;11.28;56.25
55466;BME280;41329;41.594;23.810;2022-11-12T03:03:07;96330.00;;;11.20;56.54
55466;BME280;41329;41.594;23.810;2022-11-12T03:05:32;96321.25;;;11.18;56.75
55466;BME280;41329;41.594;23.810;2022-11-12T03:07:59;96318.34;;;11.14;56.75
55466;BME280;41329;41.594;23.810;2022-11-12T03:10:25;96319.44;;;11.10;57.07
55466;BME280;41329;41.594;23.810;2022-11-12T03:12:51;96320.69;;;11.12;57.15
55466;BME280;41329;41.594;23.810;2022-11-12T03:15:16;96321.47;;;11.13;56.90
55466;BME280;41329;41.594;23.810;2022-11-12T03:17:42;96322.19;;;11.10;57.06
55466;BME280;41329;41.594;23.810;2022-11-12T03:20:07;96327.72;;;11.10;57.14
55466;BME280;41329;41.594;23.810;2022-11-12T03:22:32;96333.16;;;11.06;57.12
55466;BME280;41329;41.594;23.810;2022-11-12T03:24:58;96324.97;;;11.10;56.83
55466;BME280;41329;41.594;23.810;2022-11-12T03:27:23;96324.72;;;11.15;56.74
55466;BME280;41329;41.594;23.810;2022-11-12T03:29:48;96325.16;;;11.17;56.70
55466;BME280;41329;41.594;23.810;2022-11-12T03:32:13;96333.94;;;11.19;56.40
55466;BME280;41329;41.594;23.810;2022-11-12T03:34:39;96335.53;;;11.20;56.49
55466;BME280;41329;41.594;23.810;2022-11-12T03:37:04;96335.28;;;11.25;56.21
55466;BME280;41329;41.594;23.810;2022-11-12T03:39:33;96340.13;;;11.28;56.18
55466;BME280;41329;41.594;23.810;2022-11-12T03:41:58;96337.88;;;11.18;56.16
55466;BME280;41329;41.594;23.810;2022-11-12T03:44:23;96344.53;;;11.17;56.12
55466;BME280;41329;41.594;23.810;2022-11-12T03:46:49;96341.69;;;11.13;56.00
55466;BME280;41329;41.594;23.810;2022-11-12T03:49:14;96340.41;;;11.11;55.87
55466;BME280;41329;41.594;23.810;2022-11-12T03:51:39;96340.41;;;11.11;55.92
55466;BME280;41329;41.594;23.810;2022-11-12T03:54:05;96334.53;;;11.12;56.02
55466;BME280;41329;41.594;23.810;2022-11-12T03:56:30;96338.56;;;11.15;55.74
55466;BME280;41329;41.594;23.810;2022-11-12T03:58:55;96334.97;;;11.14;55.73
55466;BME280;41329;41.594;23.810;2022-11-12T04:01:21;96329.78;;;11.13;55.48
55466;BME280;41329;41.594;23.810;2022-11-12T04:03:46;96334.22;;;11.02;55.33
55466;BME280;41329;41.594;23.810;2022-11-12T04:06:11;96327.81;;;10.74;55.98
55466;BME280;41329;41.594;23.810;2022-11-12T04:08:55;96330.13;;;10.60;56.24
55466;BME280;41329;41.594;23.810;2022-11-12T04:11:20;96330.38;;;10.55;56.30
55466;BME280;41329;41.594;23.810;2022-11-12T04:13:46;96327.13;;;10.53;56.50
55466;BME280;41329;41.594;23.810;2022-11-12T04:16:16;96318.97;;;10.32;56.69
55466;BME280;41329;41.594;23.810;2022-11-12T04:19:00;96317.13;;;10.24;57.28
55466;BME280;41329;41.594;23.810;2022-11-12T04:21:46;96317.25;;;10.28;57.05
55466;BME280;41329;41.594;23.810;2022-11-12T04:27:08;96311.25;;;10.26;57.15
55466;BME280;41329;41.594;23.810;2022-11-12T04:29:34;96316.66;;;10.22;57.26
55466;BME280;41329;41.594;23.810;2022-11-12T04:32:18;96321.97;;;10.15;57.62
55466;BME280;41329;41.594;23.810;2022-11-12T04:34:44;96319.91;;;10.24;57.40
55466;BME280;41329;41.594;23.810;2022-11-12T04:37:09;96323.59;;;10.28;57.31
55466;BME280;41329;41.594;23.810;2022-11-12T04:39:34;96319.75;;;10.33;57.17
55466;BME280;41329;41.594;23.810;2022-11-12T04:41:59;96314.13;;;10.29;57.29
55466;BME280;41329;41.594;23.810;2022-11-12T04:44:43;96316.44;;;10.27;57.47
55466;BME280;41329;41.594;23.810;2022-11-12T04:47:21;96312.03;;;10.14;57.87
55466;BME280;41329;41.594;23.810;2022-11-12T04:49:46;96311.50;;;10.21;57.61
55466;BME280;41329;41.594;23.810;2022-11-12T04:52:11;96316.78;;;10.14;57.60
55466;BME280;41329;41.594;23.810;2022-11-12T04:54:36;96316.88;;;10.05;57.55
55466;BME280;41329;41.594;23.810;2022-11-12T04:57:02;96326.41;;;9.96;57.76
55466;BME280;41329;41.594;23.810;2022-11-12T04:59:27;96332.88;;;10.00;57.49
55466;BME280;41329;41.594;23.810;2022-11-12T05:01:53;96334.75;;;10.08;57.16
55466;BME280;41329;41.594;23.810;2022-11-12T05:04:18;96338.28;;;9.96;57.11
55466;BME280;41329;41.594;23.810;2022-11-12T05:06:44;96333.31;;;10.02;57.18
55466;BME280;41329;41.594;23.810;2022-11-12T05:09:15;96339.47;;;10.07;56.73
55466;BME280;41329;41.594;23.810;2022-11-12T05:11:40;96331.53;;;10.06;56.99
55466;BME280;41329;41.594;23.810;2022-11-12T05:14:05;96336.53;;;10.04;57.19
55466;BME280;41329;41.594;23.810;2022-11-12T05:16:31;96342.59;;;10.06;57.12
55466;BME280;41329;41.594;23.810;2022-11-12T05:18:56;96345.94;;;10.11;57.04
55466;BME280;41329;41.594;23.810;2022-11-12T05:21:21;96340.84;;;10.13;56.92
55466;BME280;41329;41.594;23.810;2022-11-12T05:24:05;96338.56;;;10.15;56.90
55466;BME280;41329;41.594;23.810;2022-11-12T05:26:31;96342.94;;;10.28;56.62
55466;BME280;41329;41.594;23.810;2022-11-12T05:28:56;96342.47;;;10.26;56.65
55466;BME280;41329;41.594;23.810;2022-11-12T05:31:21;96357.72;;;10.32;56.34
55466;BME280;41329;41.594;23.810;2022-11-12T05:33:46;96343.88;;;10.32;56.39
55466;BME280;41329;41.594;23.810;2022-11-12T05:36:12;96357.81;;;10.36;56.18
55466;BME280;41329;41.594;23.810;2022-11-12T05:38:37;96360.81;;;10.43;56.16
55466;BME280;41329;41.594;23.810;2022-11-12T05:41:03;96364.75;;;10.42;56.19
55466;BME280;41329;41.594;23.810;2022-11-12T05:43:28;96363.09;;;10.29;56.23
55466;BME280;41329;41.594;23.810;2022-11-12T05:45:53;96363.81;;;10.38;56.03
55466;BME280;41329;41.594;23.810;2022-11-12T05:48:19;96367.72;;;10.49;55.65
55466;BME280;41329;41.594;23.810;2022-11-12T05:52:58;96374.66;;;10.55;55.12
55466;BME280;41329;41.594;23.810;2022-11-12T05:55:24;96378.56;;;10.66;54.77
55466;BME280;41329;41.594;23.810;2022-11-12T05:57:49;96382.00;;;10.75;54.67
55466;BME280;41329;41.594;23.810;2022-11-12T06:00:14;96385.09;;;10.85;54.33
55466;BME280;41329;41.594;23.810;2022-11-12T06:02:40;96388.69;;;10.86;53.91
55466;BME280;41329;41.594;23.810;2022-11-12T06:05:05;96393.66;;;10.92;53.89
55466;BME280;41329;41.594;23.810;2022-11-12T06:07:31;96390.88;;;10.92;53.90
55466;BME280;41329;41.594;23.810;2022-11-12T06:09:56;96380.81;;;11.00;53.88
55466;BME280;41329;41.594;23.810;2022-11-12T06:12:21;96386.34;;;11.00;53.65
55466;BME280;41329;41.594;23.810;2022-11-12T06:14:46;96386.94;;;11.05;53.51
55466;BME280;41329;41.594;23.810;2022-11-12T06:17:12;96388.44;;;11.03;53.68
55466;BME280;41329;41.594;23.810;2022-11-12T06:19:37;96394.78;;;11.15;53.17
55466;BME280;41329;41.594;23.810;2022-11-12T06:22:02;96401.34;;;11.23;53.26
55466;BME280;41329;41.594;23.810;2022-11-12T06:24:27;96401.56;;;11.30;53.23
55466;BME280;41329;41.594;23.810;2022-11-12T06:26:54;96406.72;;;11.31;53.16
55466;BME280;41329;41.594;23.810;2022-11-12T06:29:19;96399.44;;;11.39;53.11
55466;BME280;41329;41.594;23.810;2022-11-12T06:31:45;96402.41;;;11.46;52.64
55466;BME280;41329;41.594;23.810;2022-11-12T06:34:10;96402.66;;;11.41;52.61
55466;BME280;41329;41.594;23.810;2022-11-12T06:36:36;96403.78;;;11.52;52.50
55466;BME280;41329;41.594;23.810;2022-11-12T06:39:02;96408.50;;;11.51;52.57
55466;BME280;41329;41.594;23.810;2022-11-12T06:41:27;96409.41;;;11.55;53.02
55466;BME280;41329;41.594;23.810;2022-11-12T06:43:52;96410.09;;;11.64;52.48
55466;BME280;41329;41.594;23.810;2022-11-12T06:46:18;96408.47;;;11.75;52.17
55466;BME280;41329;41.594;23.810;2022-11-12T06:48:43;96421.00;;;11.85;51.75
55466;BME280;41329;41.594;23.810;2022-11-12T06:51:15;96411.19;;;11.87;51.85
55466;BME280;41329;41.594;23.810;2022-11-12T06:53:41;96415.09;;;11.86;51.94
55466;BME280;41329;41.594;23.810;2022-11-12T06:56:06;96418.88;;;11.94;51.67
55466;BME280;41329;41.594;23.810;2022-11-12T06:58:32;96419.19;;;12.04;50.89
55466;BME280;41329;41.594;23.810;2022-11-12T07:00:58;96417.94;;;12.02;51.21
55466;BME280;41329;41.594;23.810;2022-11-12T07:03:27;96422.66;;;12.01;51.47
55466;BME280;41329;41.594;23.810;2022-11-12T07:05:52;96423.47;;;12.02;51.24
55466;BME280;41329;41.594;23.810;2022-11-12T07:08:18;96422.88;;;12.08;51.12
55466;BME280;41329;41.594;23.810;2022-11-12T07:10:43;96426.63;;;12.16;50.78
55466;BME280;41329;41.594;23.810;2022-11-12T07:13:08;96426.06;;;12.10;51.23
55466;BME280;41329;41.594;23.810;2022-11-12T07:15:34;96432.38;;;12.23;50.71
55466;BME280;41329;41.594;23.810;2022-11-12T07:17:59;96427.47;;;12.32;51.17
55466;BME280;41329;41.594;23.810;2022-11-12T07:20:24;96431.13;;;12.36;50.81
55466;BME280;41329;41.594;23.810;2022-11-12T07:22:49;96429.34;;;12.43;50.62
55466;BME280;41329;41.594;23.810;2022-11-12T07:25:15;96434.63;;;12.48;49.96
55466;BME280;41329;41.594;23.810;2022-11-12T07:27:40;96426.41;;;12.52;50.08
55466;BME280;41329;41.594;23.810;2022-11-12T07:30:06;96433.72;;;12.44;50.36
55466;BME280;41329;41.594;23.810;2022-11-12T07:32:32;96434.28;;;12.50;50.28
55466;BME280;41329;41.594;23.810;2022-11-12T07:34:57;96439.28;;;12.60;50.00
55466;BME280;41329;41.594;23.810;2022-11-12T07:37:23;96441.91;;;12.69;49.74
55466;BME280;41329;41.594;23.810;2022-11-12T07:39:48;96450.16;;;12.65;49.95
55466;BME280;41329;41.594;23.810;2022-11-12T07:42:14;96455.94;;;12.60;49.68
55466;BME280;41329;41.594;23.810;2022-11-12T07:44:39;96454.53;;;12.66;49.64
55466;BME280;41329;41.594;23.810;2022-11-12T07:47:05;96472.78;;;12.67;50.34
55466;BME280;41329;41.594;23.810;2022-11-12T07:49:30;96478.25;;;12.64;50.59
55466;BME280;41329;41.594;23.810;2022-11-12T07:51:55;96492.66;;;12.53;52.14
55466;BME280;41329;41.594;23.810;2022-11-12T07:54:21;96491.72;;;12.34;53.78
55466;BME280;41329;41.594;23.810;2022-11-12T07:56:46;96498.16;;;12.22;54.46
55466;BME280;41329;41.594;23.810;2022-11-12T07:59:11;96507.00;;;12.12;55.07
55466;BME280;41329;41.594;23.810;2022-11-12T08:01:38;96503.56;;;12.03;55.76
55466;BME280;41329;41.594;23.810;2022-11-12T08:04:04;96499.56;;;11.89;56.86
55466;BME280;41329;41.594;23.810;2022-11-12T08:06:31;96497.16;;;11.87;56.33
55466;BME280;41329;41.594;23.810;2022-11-12T08:08:56;96502.13;;;11.82;57.04
55466;BME280;41329;41.594;23.810;2022-11-12T08:11:22;96514.41;;;11.69;57.87
55466;BME280;41329;41.594;23.810;2022-11-12T08:13:48;96515.44;;;11.64;58.56
55466;BME280;41329;41.594;23.810;2022-11-12T08:16:13;96516.97;;;11.62;59.08
55466;BME280;41329;41.594;23.810;2022-11-12T08:18:39;96520.63;;;11.54;59.92
55466;BME280;41329;41.594;23.810;2022-11-12T08:21:05;96522.50;;;11.50;60.47
55466;BME280;41329;41.594;23.810;2022-11-12T08:23:31;96523.22;;;11.47;61.19
55466;BME280;41329;41.594;23.810;2022-11-12T08:26:00;96526.44;;;11.49;61.35
55466;BME280;41329;41.594;23.810;2022-11-12T08:28:27;96535.91;;;11.48;62.23
55466;BME280;41329;41.594;23.810;2022-11-12T08:30:52;96535.22;;;11.51;62.34
55466;BME280;41329;41.594;23.810;2022-11-12T08:33:18;96532.06;;;11.52;62.72
55466;BME280;41329;41.594;23.810;2022-11-12T08:35:43;96540.03;;;11.54;62.62
55466;BME280;41329;41.594;23.810;2022-11-12T08:38:08;96541.66;;;11.55;62.58
55466;BME280;41329;41.594;23.810;2022-11-12T08:40:35;96544.66;;;11.50;62.18
55466;BME280;41329;41.594;23.810;2022-11-12T08:43:04;96550.22;;;11.50;62.31
55466;BME280;41329;41.594;23.810;2022-11-12T08:45:33;96550.69;;;11.52;63.44
55466;BME280;41329;41.594;23.810;2022-11-12T08:48:00;96550.44;;;11.57;63.74
55466;BME280;41329;41.594;23.810;2022-11-12T08:50:26;96547.31;;;11.58;63.65
55466;BME280;41329;41.594;23.810;2022-11-12T08:52:52;96552.88;;;11.58;63.75
55466;BME280;41329;41.594;23.810;2022-11-12T08:55:17;96555.66;;;11.58;64.42
55466;BME280;41329;41.594;23.810;2022-11-12T08:57:43;96563.47;;;11.56;64.13
55466;BME280;41329;41.594;23.810;2022-11-12T09:00:09;96561.31;;;11.26;63.09
55466;BME280;41329;41.594;23.810;2022-11-12T09:02:34;96568.00;;;11.13;63.95
55466;BME280;41329;41.594;23.810;2022-11-12T09:04:59;96562.88;;;10.79;64.90
55466;BME280;41329;41.594;23.810;2022-11-12T09:07:25;96568.41;;;10.67;65.96
55466;BME280;41329;41.594;23.810;2022-11-12T09:09:50;96569.31;;;10.59;66.83
55466;BME280;41329;41.594;23.810;2022-11-12T09:12:15;96574.84;;;10.59;66.89
55466;BME280;41329;41.594;23.810;2022-11-12T09:14:43;96568.03;;;10.68;66.95
55466;BME280;41329;41.594;23.810;2022-11-12T09:17:09;96565.63;;;10.79;66.74
55466;BME280;41329;41.594;23.810;2022-11-12T09:19:34;96559.69;;;10.89;66.86
55466;BME280;41329;41.594;23.810;2022-11-12T09:21:59;96566.75;;;10.98;67.00
55466;BME280;41329;41.594;23.810;2022-11-12T09:24:24;96572.69;;;10.88;67.66
55466;BME280;41329;41.594;23.810;2022-11-12T09:26:53;96561.88;;;10.95;67.73
55466;BME280;41329;41.594;23.810;2022-11-12T09:29:18;96562.81;;;10.99;67.41
55466;BME280;41329;41.594;23.810;2022-11-12T09:31:43;96563.25;;;11.01;67.84
55466;BME280;41329;41.594;23.810;2022-11-12T09:34:09;96560.47;;;11.01;68.23
55466;BME280;41329;41.594;23.810;2022-11-12T09:36:34;96560.59;;;10.93;68.96
55466;BME280;41329;41.594;23.810;2022-11-12T09:38:59;96562.09;;;11.02;68.44
55466;BME280;41329;41.594;23.810;2022-11-12T09:41:38;96557.63;;;11.10;68.31
55466;BME280;41329;41.594;23.810;2022-11-12T09:44:07;96563.03;;;11.18;67.86
55466;BME280;41329;41.594;23.810;2022-11-12T09:49:04;96557.97;;;11.08;66.36
55466;BME280;41329;41.594;23.810;2022-11-12T09:51:32;96550.25;;;11.14;67.09
55466;BME280;41329;41.594;23.810;2022-11-12T09:53:59;96550.44;;;11.21;67.59
55466;BME280;41329;41.594;23.810;2022-11-12T09:56:25;96547.81;;;11.24;67.32
55466;BME280;41329;41.594;23.810;2022-11-12T09:58:52;96534.31;;;11.35;67.28
55466;BME280;41329;41.594;23.810;2022-11-12T10:04:08;96533.72;;;11.41;67.68
55466;BME280;41329;41.594;23.810;2022-11-12T10:06:32;96529.56;;;11.35;68.30
55466;BME280;41329;41.594;23.810;2022-11-12T10:09:32;96527.59;;;11.48;68.87
55466;BME280;41329;41.594;23.810;2022-11-12T10:12:02;96528.41;;;11.60;69.39
55466;BME280;41329;41.594;23.810;2022-11-12T10:14:58;96528.38;;;11.72;69.32
55466;BME280;41329;41.594;23.810;2022-11-12T10:17:51;96518.44;;;11.83;67.89
55466;BME280;41329;41.594;23.810;2022-11-12T10:20:24;96519.78;;;11.89;67.33
55466;BME280;41329;41.594;23.810;2022-11-12T10:22:57;96513.88;;;11.91;66.75
55466;BME280;41329;41.594;23.810;2022-11-12T10:25:24;96514.13;;;11.86;66.08
55466;BME280;41329;41.594;23.810;2022-11-12T10:27:50;96515.75;;;11.87;65.58
55466;BME280;41329;41.594;23.810;2022-11-12T10:30:19;96508.25;;;11.87;65.47
55466;BME280;41329;41.594;23.810;2022-11-12T10:32:45;96505.00;;;11.85;64.94
55466;BME280;41329;41.594;23.810;2022-11-12T10:35:13;96499.91;;;11.87;65.17
55466;BME280;41329;41.594;23.810;2022-11-12T10:37:48;96505.81;;;11.86;65.10
55466;BME280;41329;41.594;23.810;2022-11-12T10:42:57;96492.69;;;11.71;64.78
55466;BME280;41329;41.594;23.810;2022-11-12T10:45:22;96497.44;;;11.58;64.87
55466;BME280;41329;41.594;23.810;2022-11-12T10:47:48;96501.72;;;11.56;64.39
55466;BME280;41329;41.594;23.810;2022-11-12T10:52:40;96496.41;;;11.51;66.01
55466;BME280;41329;41.594;23.810;2022-11-12T10:57:42;96486.81;;;11.60;65.39
55466;BME280;41329;41.594;23.810;2022-11-12T11:00:14;96482.19;;;11.64;65.36
55466;BME280;41329;41.594;23.810;2022-11-12T11:02:50;96484.09;;;11.76;65.81
55466;BME280;41329;41.594;23.810;2022-11-12T11:05:36;96474.38;;;11.94;66.86
55466;BME280;41329;41.594;23.810;2022-11-12T11:08:02;96462.97;;;12.26;68.29
55466;BME280;41329;41.594;23.810;2022-11-12T11:10:29;96446.75;;;12.56;66.94
55466;BME280;41329;41.594;23.810;2022-11-12T11:13:07;96448.97;;;12.66;63.13
55466;BME280;41329;41.594;23.810;2022-11-12T11:15:33;96445.66;;;12.45;61.82
55466;BME280;41329;41.594;23.810;2022-11-12T11:17:58;96445.09;;;12.39;61.97
55466;BME280;41329;41.594;23.810;2022-11-12T11:20:24;96449.84;;;12.39;61.79
55466;BME280;41329;41.594;23.810;2022-11-12T11:22:58;96445.72;;;12.33;62.18
55466;BME280;41329;41.594;23.810;2022-11-12T11:25:26;96448.28;;;12.26;62.37
55466;BME280;41329;41.594;23.810;2022-11-12T11:30:21;96441.66;;;12.15;61.94
55466;BME280;41329;41.594;23.810;2022-11-12T11:38:23;96444.88;;;12.17;61.87
55466;BME280;41329;41.594;23.810;2022-11-12T11:40:24;96435.59;;;12.25;62.27
55466;BME280;41329;41.594;23.810;2022-11-12T11:42:57;96429.50;;;12.19;61.80
55466;BME280;41329;41.594;23.810;2022-11-12T11:56:04;96421.63;;;11.78;61.36
55466;BME280;41329;41.594;23.810;2022-11-12T12:01:33;96407.28;;;12.04;62.44
55466;BME280;41329;41.594;23.810;2022-11-12T12:04:08;96402.34;;;12.13;62.13
55466;BME280;41329;41.594;23.810;2022-11-12T12:06:38;96405.69;;;12.18;62.22
55466;BME280;41329;41.594;23.810;2022-11-12T12:17:11;96398.09;;;12.31;61.21
55466;BME280;41329;41.594;23.810;2022-11-12T12:19:43;96385.66;;;12.40;60.93
55466;BME280;41329;41.594;23.810;2022-11-12T12:22:13;96387.91;;;12.51;61.05
55466;BME280;41329;41.594;23.810;2022-11-12T12:24:44;96386.81;;;12.55;60.31
55466;BME280;41329;41.594;23.810;2022-11-12T12:27:15;96388.34;;;12.52;59.87
55466;BME280;41329;41.594;23.810;2022-11-12T12:32:18;96403.47;;;12.55;59.88
55466;BME280;41329;41.594;23.810;2022-11-12T12:34:46;96398.44;;;12.61;59.54
55466;BME280;41329;41.594;23.810;2022-11-12T12:40:16;96390.31;;;12.68;59.62
55466;BME280;41329;41.594;23.810;2022-11-12T12:42:48;96393.16;;;12.71;59.92
55466;BME280;41329;41.594;23.810;2022-11-12T12:45:25;96385.38;;;12.77;59.53
55466;BME280;41329;41.594;23.810;2022-11-12T12:47:54;96388.22;;;12.80;59.66
55466;BME280;41329;41.594;23.810;2022-11-12T12:50:20;96387.44;;;12.80;59.89
55466;BME280;41329;41.594;23.810;2022-11-12T12:53:14;96392.00;;;12.88;60.06
55466;BME280;41329;41.594;23.810;2022-11-12T12:55:40;96387.75;;;12.94;60.29
55466;BME280;41329;41.594;23.810;2022-11-12T13:00:56;96384.97;;;13.09;60.18
55466;BME280;41329;41.594;23.810;2022-11-12T13:03:45;96386.69;;;13.14;60.10
55466;BME280;41329;41.594;23.810;2022-11-12T13:08:50;96388.16;;;13.27;59.68
55466;BME280;41329;41.594;23.810;2022-11-12T13:19:25;96393.38;;;13.47;58.20
55466;BME280;41329;41.594;23.810;2022-11-12T13:22:12;96402.38;;;13.41;57.73
55466;BME280;41329;41.594;23.810;2022-11-12T13:37:46;96412.56;;;13.18;56.74
55466;BME280;41329;41.594;23.810;2022-11-12T13:40:14;96414.81;;;13.12;56.71
55466;BME280;41329;41.594;23.810;2022-11-12T13:42:40;96411.88;;;13.05;56.86
55466;BME280;41329;41.594;23.810;2022-11-12T13:45:18;96408.13;;;12.98;57.28
55466;BME280;41329;41.594;23.810;2022-11-12T13:47:43;96409.44;;;13.04;57.78
55466;BME280;41329;41.594;23.810;2022-11-12T13:50:12;96413.22;;;13.11;57.81
55466;BME280;41329;41.594;23.810;2022-11-12T13:52:39;96416.00;;;13.11;57.55
55466;BME280;41329;41.594;23.810;2022-11-12T13:55:12;96416.06;;;13.15;57.31
55466;BME280;41329;41.594;23.810;2022-11-12T13:57:38;96410.34;;;13.08;57.14
55466;BME280;41329;41.594;23.810;2022-11-12T14:02:35;96414.03;;;12.81;57.88
55466;BME280;41329;41.594;23.810;2022-11-12T14:05:01;96409.44;;;12.88;57.86
55466;BME280;41329;41.594;23.810;2022-11-12T14:15:24;96410.69;;;13.06;57.66
55466;BME280;41329;41.594;23.810;2022-11-12T14:17:55;96423.09;;;13.09;58.01
55466;BME280;41329;41.594;23.810;2022-11-12T14:22:51;96424.41;;;13.15;58.73
55466;BME280;41329;41.594;23.810;2022-11-12T14:25:18;96429.59;;;13.16;58.91
55466;BME280;41329;41.594;23.810;2022-11-12T14:27:48;96428.44;;;13.17;59.41